createdAt,value
2022-11-25T00:00:41.365Z,8.40
2022-11-25T00:04:42.974Z,8.40
2022-11-25T00:08:45.405Z,8.40
2022-11-25T00:12:47.046Z,8.30
2022-11-25T00:16:49.015Z,8.30
2022-11-25T00:20:50.946Z,8.20
2022-11-25T00:24:52.521Z,8.20
2022-11-25T00:28:54.276Z,8.20
2022-11-25T00:32:56.039Z,8.20
2022-11-25T00:36:57.706Z,8.10
2022-11-25T00:41:18.151Z,8.10
2022-11-25T00:45:19.690Z,8.20
2022-11-25T00:49:21.339Z,8.20
2022-11-25T00:53:22.887Z,8.30
2022-11-25T00:57:24.572Z,8.40
2022-11-25T01:01:26.486Z,8.40
2022-11-25T01:05:28.089Z,8.40
2022-11-25T01:09:30.819Z,8.40
2022-11-25T01:13:32.591Z,8.50
2022-11-25T01:17:34.187Z,8.60
2022-11-25T01:21:36.045Z,8.60
2022-11-25T01:25:38.120Z,8.60
2022-11-25T01:29:41.612Z,8.60
2022-11-25T01:33:43.664Z,8.60
2022-11-25T01:37:45.302Z,8.60
2022-11-25T01:41:47.226Z,8.60
2022-11-25T01:45:48.845Z,8.50
2022-11-25T01:49:59.449Z,8.50
2022-11-25T01:54:03.528Z,8.50
2022-11-25T01:58:07.249Z,8.50
2022-11-25T02:02:09.797Z,8.50
2022-11-25T02:06:25.687Z,8.50
2022-11-25T02:10:29.051Z,8.50
2022-11-25T02:14:30.605Z,8.40
2022-11-25T02:18:40.388Z,8.40
2022-11-25T02:23:03.125Z,8.40
2022-11-25T02:27:04.710Z,8.40
2022-11-25T02:31:07.507Z,8.30
2022-11-25T02:35:29.174Z,8.40
2022-11-25T02:39:30.803Z,8.50
2022-11-25T02:43:32.390Z,8.40
2022-11-25T02:47:34.018Z,8.50
2022-11-25T02:51:35.704Z,8.50
2022-11-25T02:55:37.274Z,8.50
2022-11-25T02:59:38.837Z,8.50
2022-11-25T03:03:40.513Z,8.50
2022-11-25T03:07:42.165Z,8.50
2022-11-25T03:12:19.504Z,8.50
2022-11-25T03:16:21.100Z,8.50
2022-11-25T03:20:22.961Z,8.50
2022-11-25T03:24:24.495Z,8.50
2022-11-25T03:28:26.068Z,8.50
2022-11-25T03:32:27.943Z,8.50
2022-11-25T03:36:29.637Z,8.50
2022-11-25T03:40:31.226Z,8.50
2022-11-25T03:44:32.958Z,8.50
2022-11-25T03:48:34.861Z,8.50
2022-11-25T03:52:36.750Z,8.50
2022-11-25T03:56:38.351Z,8.60
2022-11-25T04:00:39.976Z,8.60
2022-11-25T04:04:41.751Z,8.70
2022-11-25T04:08:43.674Z,8.80
2022-11-25T04:12:48.365Z,8.80
2022-11-25T04:16:50.083Z,8.80
2022-11-25T04:20:51.893Z,8.80
2022-11-25T04:24:53.545Z,8.80
2022-11-25T04:28:55.144Z,8.90
2022-11-25T04:32:56.718Z,8.90
2022-11-25T04:36:58.288Z,8.80
2022-11-25T04:40:59.934Z,8.80
2022-11-25T04:45:22.116Z,8.80
2022-11-25T04:49:23.913Z,8.80
2022-11-25T04:53:26.755Z,8.80
2022-11-25T04:57:29.749Z,8.80
2022-11-25T05:01:31.882Z,8.80
2022-11-25T05:05:33.451Z,8.80
2022-11-25T05:09:35.363Z,8.80
2022-11-25T05:13:37.126Z,8.70
2022-11-25T05:17:39.116Z,8.80
2022-11-25T05:21:40.746Z,8.70
2022-11-25T05:25:42.367Z,8.70
2022-11-25T05:29:44.128Z,8.60
2022-11-25T05:33:45.774Z,8.60
2022-11-25T05:37:47.567Z,8.60
2022-11-25T05:41:49.188Z,8.50
2022-11-25T05:45:50.849Z,8.50
2022-11-25T05:49:52.551Z,8.50
2022-11-25T05:53:54.559Z,8.50
2022-11-25T05:57:57.953Z,8.50
2022-11-25T06:01:59.677Z,8.50
2022-11-25T06:06:01.510Z,8.40
2022-11-25T06:10:03.622Z,8.40
2022-11-25T06:14:05.363Z,8.50
2022-11-25T06:18:13.545Z,8.40
2022-11-25T06:22:19.292Z,8.40
2022-11-25T06:26:27.123Z,8.30
2022-11-25T06:30:29.195Z,8.30
2022-11-25T06:34:30.832Z,8.30
2022-11-25T06:38:32.615Z,8.30
2022-11-25T06:42:35.072Z,8.30
2022-11-25T06:46:36.655Z,8.40
2022-11-25T06:50:38.294Z,8.30
2022-11-25T06:54:41.444Z,8.30
2022-11-25T06:58:43.792Z,8.20
2022-11-25T07:02:48.486Z,8.20
2022-11-25T07:06:50.834Z,8.10
2022-11-25T07:10:52.583Z,8.00
2022-11-25T07:14:56.206Z,8.00
2022-11-25T07:19:02.578Z,7.90
2022-11-25T07:23:06.454Z,7.90
2022-11-25T07:27:08.448Z,7.80
2022-11-25T07:31:28.624Z,7.80
2022-11-25T07:35:38.263Z,7.80
2022-11-25T07:39:41.815Z,7.90
2022-11-25T07:43:47.424Z,7.90
2022-11-25T07:47:49.847Z,8.00
2022-11-25T07:51:54.425Z,8.10
2022-11-25T07:56:00.521Z,8.10
2022-11-25T08:00:04.853Z,8.20
2022-11-25T08:04:07.888Z,8.10
2022-11-25T08:08:10.915Z,8.10
2022-11-25T08:12:13.063Z,8.20
2022-11-25T08:16:16.242Z,8.30
2022-11-25T08:20:19.000Z,8.30
2022-11-25T08:24:21.701Z,8.40
2022-11-25T08:28:23.842Z,8.50
2022-11-25T08:32:25.740Z,8.60
2022-11-25T08:36:28.681Z,8.60
2022-11-25T08:40:31.592Z,8.70
2022-11-25T08:44:37.399Z,8.80
2022-11-25T08:48:39.790Z,8.90
2022-11-25T08:52:44.764Z,8.90
2022-11-25T08:56:46.426Z,9.00
2022-11-25T09:00:49.208Z,9.10
2022-11-25T09:04:51.880Z,9.10
2022-11-25T09:08:58.831Z,9.20
2022-11-25T09:13:01.645Z,9.20
2022-11-25T09:17:08.075Z,9.30
2022-11-25T09:21:15.279Z,9.30
2022-11-25T09:25:17.363Z,9.40
2022-11-25T09:29:19.542Z,9.40
2022-11-25T09:33:21.897Z,9.40
2022-11-25T09:37:24.253Z,9.40
2022-11-25T09:42:03.733Z,9.50
2022-11-25T09:46:43.802Z,9.50
2022-11-25T09:50:58.883Z,9.70
2022-11-25T09:55:09.393Z,9.60
2022-11-25T09:59:15.413Z,9.60
2022-11-25T10:03:29.495Z,9.80
2022-11-25T10:07:37.709Z,9.80
2022-11-25T10:11:40.257Z,9.90
2022-11-25T10:15:44.680Z,9.90
2022-11-25T10:19:52.572Z,10.00
2022-11-25T10:23:54.788Z,10.00
2022-11-25T10:27:57.065Z,10.10
2022-11-25T10:32:11.058Z,10.10
2022-11-25T10:36:19.024Z,10.20
2022-11-25T10:40:23.363Z,10.20
2022-11-25T10:44:28.494Z,10.20
2022-11-25T10:48:31.283Z,10.30
2022-11-25T10:52:37.904Z,10.30
2022-11-25T10:56:44.646Z,10.30
2022-11-25T11:00:47.201Z,10.30
2022-11-25T11:05:05.193Z,10.40
2022-11-25T11:09:26.242Z,10.40
2022-11-25T11:13:34.241Z,10.40
2022-11-25T11:17:37.341Z,10.50
2022-11-25T11:21:41.930Z,10.40
2022-11-25T11:25:54.694Z,10.50
2022-11-25T11:30:26.696Z,10.60
2022-11-25T11:34:31.478Z,10.70
2022-11-25T11:38:52.019Z,10.70
2022-11-25T11:43:06.160Z,10.90
2022-11-25T11:47:23.720Z,11.00
2022-11-25T11:51:25.642Z,10.90
2022-11-25T11:55:35.438Z,10.90
2022-11-25T11:59:46.804Z,11.10
2022-11-25T12:03:58.191Z,11.30
2022-11-25T12:08:23.519Z,11.30
2022-11-25T12:12:32.446Z,11.30
2022-11-25T12:16:38.158Z,11.20
2022-11-25T12:20:43.543Z,10.80
2022-11-25T12:24:57.499Z,10.90
2022-11-25T12:29:08.887Z,10.90
2022-11-25T12:33:26.912Z,10.90
2022-11-25T12:37:34.975Z,10.90
2022-11-25T12:41:43.123Z,10.80
2022-11-25T12:45:47.796Z,10.80
2022-11-25T12:49:50.992Z,10.90
2022-11-25T12:54:12.520Z,11.00
2022-11-25T12:58:18.241Z,11.00
2022-11-25T13:02:30.448Z,10.80
2022-11-25T13:06:51.546Z,10.60
2022-11-25T13:11:00.174Z,10.70
2022-11-25T13:15:12.301Z,10.80
2022-11-25T13:19:21.654Z,10.80
2022-11-25T13:23:26.098Z,10.90
2022-11-25T13:27:32.995Z,11.20
2022-11-25T13:31:58.934Z,11.30
2022-11-25T13:36:15.086Z,11.30
2022-11-25T13:40:24.594Z,11.30
2022-11-25T13:44:46.931Z,11.20
2022-11-25T13:48:50.634Z,11.30
2022-11-25T13:53:00.464Z,11.30
2022-11-25T13:57:12.935Z,11.20
2022-11-25T14:01:30.024Z,11.20
2022-11-25T14:05:49.593Z,11.20
2022-11-25T14:10:11.049Z,11.30
2022-11-25T14:14:42.845Z,11.30
2022-11-25T14:19:22.199Z,11.20
2022-11-25T14:23:35.974Z,11.20
2022-11-25T14:27:37.963Z,11.10
2022-11-25T14:31:47.724Z,11.20
2022-11-25T14:35:52.138Z,11.10
2022-11-25T14:40:00.447Z,11.00
2022-11-25T14:44:06.196Z,11.00
2022-11-25T14:48:19.225Z,10.90
2022-11-25T14:52:22.952Z,10.80
2022-11-25T14:56:29.686Z,10.70
2022-11-25T15:00:31.320Z,10.60
2022-11-25T15:04:33.857Z,10.50
2022-11-25T15:08:42.469Z,10.40
2022-11-25T15:12:48.057Z,10.40
2022-11-25T15:16:52.113Z,10.30
2022-11-25T15:20:57.002Z,10.20
2022-11-25T15:25:07.594Z,10.10
2022-11-25T15:29:12.648Z,10.10
2022-11-25T15:33:14.808Z,10.00
2022-11-25T15:37:17.245Z,9.90
2022-11-25T15:41:35.885Z,9.80
2022-11-25T15:45:45.224Z,9.70
2022-11-25T15:50:07.798Z,9.70
2022-11-25T15:54:12.339Z,9.70
2022-11-25T15:58:18.957Z,9.60
2022-11-25T16:02:28.723Z,9.50
2022-11-25T16:06:30.814Z,9.50
2022-11-25T16:10:35.207Z,9.60
2022-11-25T16:14:37.818Z,9.50
2022-11-25T16:18:52.410Z,9.50
2022-11-25T16:22:55.297Z,9.40
2022-11-25T16:27:05.160Z,9.50
2022-11-25T16:31:10.280Z,9.50
2022-11-25T16:35:15.697Z,9.50
2022-11-25T16:39:18.888Z,9.50
2022-11-25T16:43:26.744Z,9.50
2022-11-25T16:47:29.317Z,9.50
2022-11-25T16:51:30.927Z,9.50
2022-11-25T16:55:34.752Z,9.50
2022-11-25T16:59:40.794Z,9.50
2022-11-25T17:03:48.032Z,9.50
2022-11-25T17:07:50.392Z,9.50
2022-11-25T17:11:59.003Z,9.50
2022-11-25T17:16:02.078Z,9.50
2022-11-25T17:20:07.218Z,9.40
2022-11-25T17:24:14.240Z,9.40
2022-11-25T17:28:18.393Z,9.40
2022-11-25T17:32:21.620Z,9.40
2022-11-25T17:36:25.625Z,9.40
2022-11-25T17:40:28.505Z,9.40
2022-11-25T17:44:30.437Z,9.30
2022-11-25T17:48:33.316Z,9.40
2022-11-25T17:52:35.563Z,9.30
2022-11-25T17:56:38.831Z,9.40
2022-11-25T18:00:42.521Z,9.20
2022-11-25T18:04:44.310Z,9.30
2022-11-25T18:08:46.175Z,9.10
2022-11-25T18:12:49.655Z,9.00
2022-11-25T18:16:51.235Z,9.00
2022-11-25T18:20:53.201Z,8.90
2022-11-25T18:24:54.834Z,8.90
2022-11-25T18:28:56.460Z,8.80
2022-11-25T18:32:58.280Z,8.80
2022-11-25T18:37:00.978Z,8.80
2022-11-25T18:41:02.736Z,8.80
2022-11-25T18:45:04.615Z,8.80
2022-11-25T18:49:13.327Z,8.80
2022-11-25T18:53:17.997Z,8.80
2022-11-25T18:57:19.774Z,8.80
2022-11-25T19:01:23.063Z,8.80
2022-11-25T19:05:26.498Z,8.80
2022-11-25T19:09:28.373Z,8.80
2022-11-25T19:13:34.838Z,8.80
2022-11-25T19:17:36.769Z,8.80
2022-11-25T19:21:38.410Z,8.80
2022-11-25T19:25:40.115Z,8.80
2022-11-25T19:29:42.466Z,8.80
2022-11-25T19:33:46.831Z,8.80
2022-11-25T19:37:48.438Z,8.80
2022-11-25T19:41:50.249Z,8.70
2022-11-25T19:45:52.144Z,8.70
2022-11-25T19:49:56.141Z,8.60
2022-11-25T19:53:58.250Z,8.50
2022-11-25T19:57:59.944Z,8.50
2022-11-25T20:02:01.765Z,8.50
2022-11-25T20:06:04.269Z,8.50
2022-11-25T20:10:23.372Z,8.40
2022-11-25T20:14:25.182Z,8.40
2022-11-25T20:18:27.556Z,8.40
2022-11-25T20:22:31.010Z,8.40
2022-11-25T20:26:36.625Z,8.30
2022-11-25T20:30:38.349Z,8.30
2022-11-25T20:34:42.253Z,8.20
2022-11-25T20:38:54.473Z,8.20
2022-11-25T20:42:59.925Z,8.20
2022-11-25T20:47:01.673Z,8.10
2022-11-25T20:51:03.761Z,8.00
2022-11-25T20:55:23.524Z,7.50
2022-11-25T20:59:25.401Z,7.40
2022-11-25T21:03:27.237Z,7.30
2022-11-25T21:07:29.084Z,7.30
2022-11-25T21:11:33.234Z,7.10
2022-11-25T21:15:34.976Z,7.10
2022-11-25T21:19:37.135Z,7.00
2022-11-25T21:23:39.043Z,7.00
2022-11-25T21:27:41.235Z,7.00
2022-11-25T21:31:43.169Z,7.10
2022-11-25T21:35:46.927Z,7.10
2022-11-25T21:39:48.822Z,7.00
2022-11-25T21:43:50.894Z,6.80
2022-11-25T21:47:52.704Z,6.70
2022-11-25T21:51:54.513Z,6.80
2022-11-25T21:55:57.370Z,6.70
2022-11-25T21:59:59.062Z,6.70
2022-11-25T22:04:00.781Z,6.70
2022-11-25T22:08:03.150Z,6.70
2022-11-25T22:12:08.030Z,6.80
2022-11-25T22:16:12.985Z,6.80
2022-11-25T22:20:21.875Z,6.80
2022-11-25T22:24:23.959Z,6.70
2022-11-25T22:28:48.822Z,6.60
2022-11-25T22:33:01.089Z,6.60
2022-11-25T22:37:04.617Z,6.40
2022-11-25T22:41:09.975Z,6.50
2022-11-25T22:45:25.992Z,6.40
2022-11-25T22:49:51.401Z,6.30
2022-11-25T22:53:58.456Z,6.40
2022-11-25T22:58:01.467Z,6.40
2022-11-25T23:02:03.566Z,6.40
2022-11-25T23:06:08.818Z,6.30
2022-11-25T23:10:14.970Z,6.20
2022-11-25T23:14:16.868Z,6.20
2022-11-25T23:18:43.442Z,6.30
2022-11-25T23:27:04.095Z,6.20
2022-11-25T23:31:06.104Z,6.30
2022-11-25T23:35:09.632Z,6.40
2022-11-25T23:39:19.924Z,6.50
2022-11-25T23:43:21.566Z,6.40
2022-11-25T23:47:23.265Z,6.50
2022-11-25T23:51:25.292Z,6.40
2022-11-25T23:55:29.784Z,6.30
2022-11-25T23:59:31.411Z,6.30
